createdAt,value
2023-03-12T00:00:21.441Z,92.00
2023-03-12T00:02:48.777Z,92.20
2023-03-12T00:05:16.046Z,92.40
2023-03-12T00:07:43.046Z,92.60
2023-03-12T00:10:10.747Z,92.50
2023-03-12T00:12:40.798Z,92.50
2023-03-12T00:15:09.510Z,92.90
2023-03-12T00:17:36.817Z,92.70
2023-03-12T00:20:06.777Z,92.70
2023-03-12T00:22:35.245Z,92.70
2023-03-12T00:25:02.687Z,92.60
2023-03-12T00:27:29.742Z,92.60
2023-03-12T00:29:57.098Z,92.90
2023-03-12T00:32:24.099Z,92.90
2023-03-12T00:34:52.724Z,93.10
2023-03-12T00:37:20.539Z,93.30
2023-03-12T00:39:47.597Z,93.50
2023-03-12T00:42:15.023Z,93.70
2023-03-12T00:44:44.431Z,93.80
2023-03-12T00:47:12.694Z,93.80
2023-03-12T00:49:39.793Z,93.90
2023-03-12T00:52:07.334Z,94.00
2023-03-12T00:54:34.276Z,94.00
2023-03-12T00:57:02.007Z,93.90
2023-03-12T00:59:29.085Z,93.80
2023-03-12T01:01:56.091Z,93.80
2023-03-12T01:04:23.382Z,93.70
2023-03-12T01:06:50.701Z,93.70
2023-03-12T01:09:17.933Z,93.60
2023-03-12T01:11:45.080Z,93.60
2023-03-12T01:14:13.200Z,93.50
2023-03-12T01:16:40.472Z,93.50
2023-03-12T01:19:07.833Z,93.60
2023-03-12T01:21:36.038Z,93.60
2023-03-12T01:24:03.422Z,93.90
2023-03-12T01:26:30.615Z,93.50
2023-03-12T01:28:57.783Z,93.50
2023-03-12T01:31:25.288Z,93.50
2023-03-12T01:33:53.510Z,93.40
2023-03-12T01:36:23.998Z,93.30
2023-03-12T01:38:52.426Z,93.30
2023-03-12T01:41:20.061Z,93.30
2023-03-12T01:43:48.069Z,93.10
2023-03-12T01:46:27.233Z,93.10
2023-03-12T01:49:01.530Z,93.10
2023-03-12T01:51:41.004Z,93.00
2023-03-12T01:54:31.867Z,93.00
2023-03-12T01:57:00.663Z,92.90
2023-03-12T01:59:32.696Z,92.80
2023-03-12T02:01:59.814Z,92.80
2023-03-12T02:04:29.025Z,92.70
2023-03-12T02:07:04.997Z,92.60
2023-03-12T02:09:42.079Z,92.30
2023-03-12T02:12:11.424Z,92.10
2023-03-12T02:14:39.064Z,92.00
2023-03-12T02:17:07.203Z,91.90
2023-03-12T02:19:34.868Z,91.90
2023-03-12T02:22:03.268Z,92.10
2023-03-12T02:24:45.126Z,92.00
2023-03-12T02:27:12.524Z,92.00
2023-03-12T02:29:43.485Z,92.00
2023-03-12T02:32:24.528Z,92.20
2023-03-12T02:34:51.592Z,92.30
2023-03-12T02:37:19.717Z,92.40
2023-03-12T02:39:53.806Z,92.60
2023-03-12T02:42:22.776Z,92.70
2023-03-12T02:44:50.082Z,92.70
2023-03-12T02:47:18.354Z,92.80
2023-03-12T02:49:46.768Z,92.80
2023-03-12T02:52:13.867Z,92.80
2023-03-12T02:54:42.304Z,92.70
2023-03-12T02:57:10.190Z,92.70
2023-03-12T02:59:38.477Z,92.60
2023-03-12T03:02:09.681Z,92.70
2023-03-12T03:04:37.479Z,92.40
2023-03-12T03:07:05.046Z,92.30
2023-03-12T03:09:32.842Z,92.40
2023-03-12T03:12:00.013Z,92.30
2023-03-12T03:14:29.499Z,92.00
2023-03-12T03:16:57.331Z,92.10
2023-03-12T03:19:25.054Z,92.20
2023-03-12T03:21:52.191Z,92.40
2023-03-12T03:24:19.538Z,92.50
2023-03-12T03:26:46.522Z,92.50
2023-03-12T03:29:13.731Z,92.50
2023-03-12T03:31:42.289Z,92.50
2023-03-12T03:34:09.481Z,92.30
2023-03-12T03:36:38.886Z,92.30
2023-03-12T03:39:11.721Z,92.30
2023-03-12T03:41:39.001Z,92.40
2023-03-12T03:44:08.080Z,92.40
2023-03-12T03:46:37.785Z,92.40
2023-03-12T03:49:07.879Z,92.30
2023-03-12T03:51:37.123Z,92.40
2023-03-12T03:54:08.901Z,92.60
2023-03-12T03:56:36.118Z,92.20
2023-03-12T03:59:05.069Z,92.10
2023-03-12T04:01:34.975Z,92.10
2023-03-12T04:04:02.458Z,92.20
2023-03-12T04:06:32.016Z,92.20
2023-03-12T04:08:59.581Z,92.20
2023-03-12T04:11:28.960Z,92.20
2023-03-12T04:13:58.173Z,92.20
2023-03-12T04:16:28.732Z,92.10
2023-03-12T04:18:56.231Z,92.10
2023-03-12T04:21:25.158Z,92.10
2023-03-12T04:23:53.037Z,92.00
2023-03-12T04:26:23.918Z,92.00
2023-03-12T04:28:51.260Z,92.10
2023-03-12T04:31:18.699Z,92.10
2023-03-12T04:33:50.572Z,91.90
2023-03-12T04:36:19.767Z,91.80
2023-03-12T04:38:50.637Z,91.90
2023-03-12T04:41:21.640Z,92.00
2023-03-12T04:43:57.256Z,92.00
2023-03-12T04:46:24.488Z,92.00
2023-03-12T04:48:51.525Z,92.00
2023-03-12T04:51:18.613Z,92.10
2023-03-12T04:53:45.713Z,92.20
2023-03-12T04:56:14.060Z,92.30
2023-03-12T04:58:42.348Z,92.30
2023-03-12T05:01:22.070Z,92.30
2023-03-12T05:03:50.232Z,92.20
2023-03-12T05:06:19.029Z,92.20
2023-03-12T05:08:47.709Z,92.10
2023-03-12T05:11:15.919Z,92.20
2023-03-12T05:13:43.427Z,92.10
2023-03-12T05:16:11.630Z,92.10
2023-03-12T05:18:38.723Z,92.00
2023-03-12T05:21:17.916Z,91.90
2023-03-12T05:23:46.130Z,92.00
2023-03-12T05:26:28.068Z,91.90
2023-03-12T05:29:02.455Z,91.80
2023-03-12T05:31:33.238Z,91.70
2023-03-12T05:34:02.312Z,91.60
2023-03-12T05:36:29.838Z,91.50
2023-03-12T05:38:57.473Z,91.60
2023-03-12T05:41:28.948Z,91.60
2023-03-12T05:44:00.730Z,91.50
2023-03-12T05:46:29.647Z,91.50
2023-03-12T05:48:59.110Z,91.40
2023-03-12T05:51:26.658Z,91.50
2023-03-12T05:53:53.788Z,91.60
2023-03-12T05:56:20.820Z,91.70
2023-03-12T05:58:50.419Z,91.80
2023-03-12T06:01:26.662Z,92.00
2023-03-12T06:03:55.704Z,92.20
2023-03-12T06:06:25.052Z,92.30
2023-03-12T06:08:52.581Z,92.50
2023-03-12T06:11:19.960Z,92.50
2023-03-12T06:13:48.044Z,92.60
2023-03-12T06:16:23.881Z,92.60
2023-03-12T06:18:58.473Z,92.60
2023-03-12T06:21:31.945Z,92.60
2023-03-12T06:24:00.292Z,92.60
2023-03-12T06:26:38.006Z,92.60
2023-03-12T06:29:05.014Z,92.60
2023-03-12T06:31:33.231Z,92.70
2023-03-12T06:34:00.221Z,92.50
2023-03-12T06:36:27.256Z,92.40
2023-03-12T06:38:57.018Z,92.40
2023-03-12T06:41:24.603Z,92.30
2023-03-12T06:43:51.845Z,92.30
2023-03-12T06:46:25.813Z,92.20
2023-03-12T06:48:53.058Z,92.00
2023-03-12T06:51:21.043Z,91.90
2023-03-12T06:53:48.405Z,91.80
2023-03-12T06:56:15.577Z,91.80
2023-03-12T06:58:42.548Z,91.60
2023-03-12T07:01:09.875Z,91.40
2023-03-12T07:03:37.330Z,91.20
2023-03-12T07:06:05.280Z,90.90
2023-03-12T07:08:32.606Z,90.60
2023-03-12T07:11:03.416Z,90.40
2023-03-12T07:13:30.796Z,90.60
2023-03-12T07:16:00.290Z,90.60
2023-03-12T07:18:27.565Z,90.60
2023-03-12T07:20:55.450Z,90.50
2023-03-12T07:23:23.223Z,90.40
2023-03-12T07:25:50.980Z,90.40
2023-03-12T07:28:20.410Z,90.30
2023-03-12T07:30:53.095Z,90.10
2023-03-12T07:33:21.880Z,89.70
2023-03-12T07:35:51.708Z,88.30
2023-03-12T07:38:19.252Z,86.60
2023-03-12T07:40:51.456Z,85.60
2023-03-12T07:43:21.556Z,85.40
2023-03-12T07:45:50.315Z,84.80
2023-03-12T07:48:19.588Z,84.20
2023-03-12T07:50:47.190Z,83.80
2023-03-12T07:53:14.316Z,84.60
2023-03-12T07:55:48.378Z,85.20
2023-03-12T07:58:17.887Z,84.20
2023-03-12T08:00:45.506Z,84.70
2023-03-12T08:03:13.491Z,84.50
2023-03-12T08:05:40.844Z,84.40
2023-03-12T08:08:08.253Z,84.30
2023-03-12T08:10:36.183Z,85.00
2023-03-12T08:13:04.581Z,83.90
2023-03-12T08:15:31.655Z,83.60
2023-03-12T08:17:59.511Z,83.20
2023-03-12T08:20:26.497Z,82.90
2023-03-12T08:22:53.511Z,82.50
2023-03-12T08:25:21.204Z,79.50
2023-03-12T08:27:48.320Z,77.00
2023-03-12T08:30:15.660Z,78.00
2023-03-12T08:32:42.714Z,78.20
2023-03-12T08:35:12.508Z,77.30
2023-03-12T08:37:39.493Z,76.90
2023-03-12T08:40:13.715Z,77.10
2023-03-12T08:42:42.168Z,77.20
2023-03-12T08:45:10.949Z,76.00
2023-03-12T08:47:42.534Z,76.40
2023-03-12T08:50:15.281Z,75.80
2023-03-12T08:52:43.289Z,77.00
2023-03-12T08:55:11.897Z,76.80
2023-03-12T08:57:39.891Z,76.20
2023-03-12T09:00:12.653Z,74.80
2023-03-12T09:02:39.886Z,73.80
2023-03-12T09:05:07.567Z,73.20
2023-03-12T09:07:34.852Z,73.90
2023-03-12T09:10:02.177Z,73.40
2023-03-12T09:12:29.201Z,73.50
2023-03-12T09:15:03.455Z,73.90
2023-03-12T09:17:32.250Z,73.90
2023-03-12T09:20:00.973Z,74.00
2023-03-12T09:22:30.602Z,74.10
2023-03-12T09:24:57.966Z,73.40
2023-03-12T09:27:25.091Z,73.20
2023-03-12T09:30:00.010Z,71.60
2023-03-12T09:32:29.859Z,70.60
2023-03-12T09:35:01.885Z,71.00
2023-03-12T09:37:29.466Z,71.20
2023-03-12T09:39:56.701Z,71.00
2023-03-12T09:42:46.244Z,69.50
2023-03-12T09:45:23.816Z,69.80
2023-03-12T09:48:08.011Z,69.00
2023-03-12T09:50:40.715Z,67.20
2023-03-12T09:53:42.748Z,66.80
2023-03-12T09:56:15.076Z,67.00
2023-03-12T09:58:44.567Z,66.20
2023-03-12T10:01:30.319Z,65.50
2023-03-12T10:04:12.734Z,65.80
2023-03-12T10:06:47.247Z,65.10
2023-03-12T10:09:40.834Z,65.10
2023-03-12T10:12:24.455Z,64.20
2023-03-12T10:15:31.599Z,64.50
2023-03-12T10:18:17.004Z,64.20
2023-03-12T10:21:29.114Z,63.20
2023-03-12T10:24:06.122Z,63.40
2023-03-12T10:26:50.420Z,63.80
2023-03-12T10:29:39.632Z,63.40
2023-03-12T10:32:37.799Z,63.40
2023-03-12T10:35:16.246Z,63.20
2023-03-12T10:37:46.611Z,62.90
2023-03-12T10:40:17.470Z,63.90
2023-03-12T10:42:44.694Z,63.20
2023-03-12T10:45:20.553Z,63.00
2023-03-12T10:47:57.221Z,62.10
2023-03-12T10:50:27.582Z,60.50
2023-03-12T10:53:12.976Z,61.60
2023-03-12T10:55:40.273Z,62.00
2023-03-12T10:58:07.158Z,62.00
2023-03-12T11:00:34.221Z,61.20
2023-03-12T11:03:21.566Z,61.50
2023-03-12T11:05:52.093Z,61.90
2023-03-12T11:08:33.540Z,61.40
2023-03-12T11:11:02.376Z,60.80
2023-03-12T11:13:36.771Z,60.60
2023-03-12T11:16:31.873Z,61.00
2023-03-12T11:19:01.610Z,61.50
2023-03-12T11:21:33.517Z,61.30
2023-03-12T11:24:00.563Z,60.90
2023-03-12T11:26:36.309Z,60.10
2023-03-12T11:29:11.924Z,59.20
2023-03-12T11:31:47.249Z,59.40
2023-03-12T11:34:29.066Z,59.70
2023-03-12T11:37:01.620Z,59.40
2023-03-12T11:39:55.533Z,59.60
2023-03-12T11:42:56.446Z,59.50
2023-03-12T11:45:26.379Z,59.50
2023-03-12T11:48:16.023Z,60.00
2023-03-12T11:51:12.842Z,60.00
2023-03-12T11:54:08.208Z,58.60
2023-03-12T11:56:44.320Z,58.90
2023-03-12T11:59:26.422Z,58.70
2023-03-12T12:01:56.208Z,58.80
2023-03-12T12:04:48.022Z,56.90
2023-03-12T12:07:30.074Z,58.50
2023-03-12T12:09:59.679Z,60.30
2023-03-12T12:12:45.675Z,60.40
2023-03-12T12:15:35.002Z,59.00
2023-03-12T12:18:36.155Z,59.40
2023-03-12T12:21:34.677Z,59.80
2023-03-12T12:24:18.502Z,60.30
2023-03-12T12:27:08.271Z,59.50
2023-03-12T12:30:29.719Z,59.10
2023-03-12T12:33:08.237Z,59.30
2023-03-12T12:35:43.253Z,59.90
2023-03-12T12:38:37.685Z,60.50
2023-03-12T12:41:27.225Z,59.40
2023-03-12T12:44:03.398Z,59.70
2023-03-12T12:46:32.729Z,60.00
2023-03-12T12:49:01.735Z,59.50
2023-03-12T12:51:37.026Z,59.80
2023-03-12T12:54:22.826Z,60.00
2023-03-12T12:57:11.139Z,60.20
2023-03-12T12:59:38.034Z,60.00
2023-03-12T13:02:16.945Z,60.30
2023-03-12T13:04:45.195Z,60.20
2023-03-12T13:07:12.098Z,59.90
2023-03-12T13:09:43.826Z,59.70
2023-03-12T13:12:34.823Z,59.30
2023-03-12T13:15:22.418Z,59.70
2023-03-12T13:17:52.525Z,58.90
2023-03-12T13:20:21.062Z,58.90
2023-03-12T13:22:53.946Z,59.50
2023-03-12T13:25:45.618Z,59.70
2023-03-12T13:28:42.034Z,59.60
2023-03-12T13:31:28.756Z,60.40
2023-03-12T13:34:17.486Z,59.90
2023-03-12T13:36:46.613Z,59.10
2023-03-12T13:39:16.520Z,58.90
2023-03-12T13:41:52.443Z,58.80
2023-03-12T13:44:38.812Z,59.00
2023-03-12T13:47:23.459Z,58.30
2023-03-12T13:50:00.933Z,57.90
2023-03-12T13:52:37.709Z,58.10
2023-03-12T13:55:13.848Z,57.70
2023-03-12T13:57:45.013Z,57.60
2023-03-12T14:00:17.174Z,57.80
2023-03-12T14:03:02.752Z,58.30
2023-03-12T14:05:33.124Z,58.30
2023-03-12T14:08:19.077Z,58.00
2023-03-12T14:11:29.435Z,58.10
2023-03-12T14:14:34.323Z,57.60
2023-03-12T14:17:05.792Z,58.90
2023-03-12T14:19:35.548Z,58.50
2023-03-12T14:22:06.852Z,58.20
2023-03-12T14:24:47.374Z,58.60
2023-03-12T14:27:18.045Z,59.30
2023-03-12T14:29:52.509Z,58.60
2023-03-12T14:32:23.153Z,58.50
2023-03-12T14:35:08.282Z,58.50
2023-03-12T14:37:44.477Z,58.40
2023-03-12T14:40:26.860Z,59.10
2023-03-12T14:42:55.265Z,59.80
2023-03-12T14:45:23.505Z,59.50
2023-03-12T14:47:59.114Z,59.30
2023-03-12T14:50:30.059Z,60.00
2023-03-12T14:53:13.723Z,60.50
2023-03-12T14:55:40.732Z,60.80
2023-03-12T14:58:18.833Z,61.10
2023-03-12T15:00:59.445Z,61.10
2023-03-12T15:03:28.735Z,61.60
2023-03-12T15:05:56.926Z,61.10
2023-03-12T15:08:25.874Z,60.90
2023-03-12T15:10:58.505Z,61.50
2023-03-12T15:13:27.608Z,61.30
2023-03-12T15:15:56.095Z,61.90
2023-03-12T15:18:31.216Z,61.90
2023-03-12T15:21:01.095Z,61.80
2023-03-12T15:23:31.229Z,62.00
2023-03-12T15:26:20.114Z,61.60
2023-03-12T15:29:27.548Z,61.50
2023-03-12T15:32:00.113Z,62.70
2023-03-12T15:34:34.746Z,62.20
2023-03-12T15:37:05.356Z,62.60
2023-03-12T15:39:35.035Z,63.30
2023-03-12T15:42:10.720Z,63.10
2023-03-12T15:44:51.842Z,64.00
2023-03-12T15:47:22.652Z,64.60
2023-03-12T15:50:18.990Z,64.40
2023-03-12T15:53:18.580Z,64.40
2023-03-12T15:56:05.495Z,64.70
2023-03-12T15:59:21.638Z,65.00
2023-03-12T16:01:56.559Z,65.20
2023-03-12T16:04:24.794Z,66.30
2023-03-12T16:06:53.288Z,65.70
2023-03-12T16:09:35.375Z,65.90
2023-03-12T16:12:02.657Z,66.50
2023-03-12T16:14:31.873Z,66.70
2023-03-12T16:16:59.252Z,66.90
2023-03-12T16:19:29.553Z,67.10
2023-03-12T16:21:56.600Z,67.60
2023-03-12T16:24:23.585Z,67.70
2023-03-12T16:27:00.613Z,67.80
2023-03-12T16:29:33.362Z,68.20
2023-03-12T16:32:00.829Z,68.60
2023-03-12T16:34:28.329Z,68.70
2023-03-12T16:36:55.385Z,69.10
2023-03-12T16:39:23.850Z,69.30
2023-03-12T16:41:51.341Z,69.50
2023-03-12T16:44:21.645Z,69.70
2023-03-12T16:46:48.879Z,70.20
2023-03-12T16:49:18.057Z,70.30
2023-03-12T16:51:45.107Z,70.60
2023-03-12T16:54:12.653Z,70.80
2023-03-12T16:56:46.267Z,71.30
2023-03-12T16:59:33.313Z,71.60
2023-03-12T17:02:00.343Z,72.00
2023-03-12T17:04:27.350Z,72.30
2023-03-12T17:06:55.428Z,72.20
2023-03-12T17:09:23.100Z,72.50
2023-03-12T17:11:52.222Z,72.60
2023-03-12T17:14:22.150Z,72.90
2023-03-12T17:16:50.162Z,73.00
2023-03-12T17:19:17.816Z,73.10
2023-03-12T17:21:45.664Z,73.10
2023-03-12T17:24:16.704Z,73.20
2023-03-12T17:26:45.592Z,73.40
2023-03-12T17:29:12.750Z,73.40
2023-03-12T17:31:41.229Z,73.60
2023-03-12T17:34:08.872Z,73.70
2023-03-12T17:36:37.944Z,73.80
2023-03-12T17:39:05.003Z,73.90
2023-03-12T17:41:32.958Z,74.00
2023-03-12T17:44:02.206Z,74.30
2023-03-12T17:46:30.703Z,74.50
2023-03-12T17:48:57.660Z,74.80
2023-03-12T17:51:24.932Z,74.90
2023-03-12T17:53:52.141Z,75.20
2023-03-12T17:56:19.227Z,75.30
2023-03-12T17:58:46.418Z,75.50
2023-03-12T18:01:14.545Z,75.80
2023-03-12T18:03:44.094Z,76.00
2023-03-12T18:06:12.036Z,76.30
2023-03-12T18:08:38.984Z,76.50
2023-03-12T18:11:05.998Z,76.90
2023-03-12T18:13:33.217Z,77.10
2023-03-12T18:16:00.559Z,77.20
2023-03-12T18:18:27.878Z,77.30
2023-03-12T18:20:55.026Z,77.30
2023-03-12T18:23:23.702Z,77.30
2023-03-12T18:25:50.733Z,77.40
2023-03-12T18:28:17.703Z,77.50
2023-03-12T18:30:48.377Z,77.50
2023-03-12T18:33:15.561Z,77.60
2023-03-12T18:35:48.688Z,78.10
2023-03-12T18:38:15.831Z,77.70
2023-03-12T18:40:42.691Z,77.90
2023-03-12T18:43:09.710Z,78.10
2023-03-12T18:45:42.593Z,78.30
2023-03-12T18:48:10.306Z,78.60
2023-03-12T18:50:37.640Z,78.90
2023-03-12T18:53:04.783Z,79.10
2023-03-12T18:55:32.306Z,79.50
2023-03-12T18:57:59.350Z,80.20
2023-03-12T19:00:26.413Z,80.50
2023-03-12T19:02:53.420Z,80.80
2023-03-12T19:05:20.550Z,80.90
2023-03-12T19:07:47.543Z,81.10
2023-03-12T19:10:15.676Z,81.20
2023-03-12T19:12:52.042Z,81.60
2023-03-12T19:15:22.670Z,81.90
2023-03-12T19:17:50.045Z,82.40
2023-03-12T19:20:17.244Z,82.80
2023-03-12T19:22:44.223Z,83.10
2023-03-12T19:25:11.344Z,83.30
2023-03-12T19:27:38.372Z,83.60
2023-03-12T19:30:06.046Z,83.70
2023-03-12T19:32:42.269Z,83.70
2023-03-12T19:35:12.411Z,83.80
2023-03-12T19:37:39.526Z,84.00
2023-03-12T19:40:07.326Z,84.00
2023-03-12T19:42:34.462Z,84.10
2023-03-12T19:45:01.506Z,83.90
2023-03-12T19:47:29.411Z,83.70
2023-03-12T19:49:56.423Z,83.70
2023-03-12T19:52:23.668Z,83.70
2023-03-12T19:55:03.256Z,83.50
2023-03-12T19:57:30.797Z,83.40
2023-03-12T19:59:57.804Z,83.40
2023-03-12T20:02:26.109Z,83.60
2023-03-12T20:04:53.292Z,83.70
2023-03-12T20:07:20.198Z,83.80
2023-03-12T20:09:47.205Z,83.90
2023-03-12T20:12:14.598Z,83.80
2023-03-12T20:14:42.928Z,83.90
2023-03-12T20:17:11.139Z,84.10
2023-03-12T20:19:39.030Z,84.20
2023-03-12T20:22:09.156Z,84.50
2023-03-12T20:24:36.122Z,84.50
2023-03-12T20:27:03.967Z,84.50
2023-03-12T20:29:31.194Z,84.70
2023-03-12T20:31:58.296Z,85.10
2023-03-12T20:34:25.437Z,85.30
2023-03-12T20:36:52.396Z,85.30
2023-03-12T20:39:19.540Z,85.10
2023-03-12T20:41:46.571Z,85.40
2023-03-12T20:44:13.565Z,86.50
2023-03-12T20:46:41.934Z,86.30
2023-03-12T20:49:08.879Z,87.10
2023-03-12T20:51:36.159Z,86.50
2023-03-12T20:54:04.577Z,86.50
2023-03-12T20:56:31.562Z,86.30
2023-03-12T20:58:59.566Z,86.10
2023-03-12T21:01:26.876Z,86.00
2023-03-12T21:03:57.472Z,86.00
2023-03-12T21:06:24.880Z,86.00
2023-03-12T21:08:51.804Z,86.00
2023-03-12T21:11:18.797Z,86.20
2023-03-12T21:13:46.228Z,86.30
2023-03-12T21:16:13.322Z,86.50
2023-03-12T21:18:41.817Z,86.60
2023-03-12T21:21:11.944Z,86.60
2023-03-12T21:23:39.049Z,86.80
2023-03-12T21:26:09.509Z,87.00
2023-03-12T21:28:37.243Z,87.20
2023-03-12T21:31:10.210Z,87.40
2023-03-12T21:33:38.013Z,87.70
2023-03-12T21:36:10.235Z,87.80
2023-03-12T21:38:39.180Z,88.00
2023-03-12T21:41:14.789Z,88.20
2023-03-12T21:43:42.842Z,88.30
2023-03-12T21:46:12.400Z,88.40
2023-03-12T21:48:40.027Z,88.50
2023-03-12T21:51:11.761Z,88.60
2023-03-12T21:53:38.947Z,88.80
2023-03-12T21:56:07.895Z,88.90
2023-03-12T21:58:36.018Z,89.00
2023-03-12T22:01:12.391Z,89.10
2023-03-12T22:03:40.639Z,89.80
2023-03-12T22:06:08.720Z,89.70
2023-03-12T22:08:36.194Z,89.80
2023-03-12T22:11:04.536Z,90.10
2023-03-12T22:13:31.831Z,90.30
2023-03-12T22:16:01.098Z,90.30
2023-03-12T22:18:29.424Z,90.40
2023-03-12T22:20:58.826Z,90.40
2023-03-12T22:23:26.314Z,90.50
2023-03-12T22:25:53.884Z,90.50
2023-03-12T22:28:21.371Z,90.50
2023-03-12T22:30:48.392Z,90.50
2023-03-12T22:33:15.342Z,90.50
2023-03-12T22:35:46.348Z,90.50
2023-03-12T22:38:13.548Z,90.50
2023-03-12T22:40:41.183Z,90.40
2023-03-12T22:43:08.513Z,90.30
2023-03-12T22:45:36.223Z,90.10
2023-03-12T22:48:03.387Z,89.70
2023-03-12T22:50:30.497Z,89.90
2023-03-12T22:52:58.127Z,90.00
2023-03-12T22:55:25.179Z,90.20
2023-03-12T22:57:52.173Z,90.30
2023-03-12T23:00:24.079Z,90.60
2023-03-12T23:02:51.174Z,90.60
2023-03-12T23:05:18.236Z,90.70
2023-03-12T23:07:45.702Z,90.80
2023-03-12T23:10:12.978Z,90.80
2023-03-12T23:12:40.122Z,91.10
2023-03-12T23:15:09.041Z,90.80
2023-03-12T23:17:36.032Z,90.80
2023-03-12T23:20:04.258Z,91.10
2023-03-12T23:22:31.408Z,90.80
2023-03-12T23:24:58.373Z,90.80
2023-03-12T23:27:25.512Z,90.80
2023-03-12T23:29:52.465Z,90.80
2023-03-12T23:32:19.494Z,90.80
2023-03-12T23:34:46.508Z,90.90
2023-03-12T23:37:14.443Z,90.90
2023-03-12T23:39:53.612Z,90.80
2023-03-12T23:42:22.343Z,90.90
2023-03-12T23:44:49.319Z,91.00
2023-03-12T23:47:16.256Z,91.10
2023-03-12T23:49:43.592Z,91.20
2023-03-12T23:52:10.651Z,91.20
2023-03-12T23:54:37.756Z,91.00
2023-03-12T23:57:04.751Z,90.80
2023-03-12T23:59:31.680Z,90.80
